Time;durP1;ratioP1;P1;durP2;ratioP2;P2;SDS_P1;SDS_P2;PMS_P1;PMS_P2;Temp;Humidity;BMP_temperature;BMP_pressure;BME280_temperature;BME280_humidity;BME280_pressure;Samples;Min_cycle;Max_cycle;Signal;HPM_P1;HPM_P2
2023/03/29 00:01:57;;;;;;;10.30;1.40;;;8.90;78.70;;;;;;4934818;29;20043;-72
2023/03/29 00:04:26;;;;;;;5.03;1.30;;;9.00;78.50;;;;;;4934911;29;20082;-72
2023/03/29 00:06:53;;;;;;;7.10;1.58;;;8.90;78.10;;;;;;4935085;29;20039;-72
2023/03/29 00:09:18;;;;;;;8.15;1.50;;;8.90;78.00;;;;;;4934779;29;20149;-71
2023/03/29 00:11:45;;;;;;;8.02;1.20;;;8.90;78.00;;;;;;4918479;29;20457;-72
2023/03/29 00:14:11;;;;;;;6.38;1.45;;;8.90;77.80;;;;;;4934742;29;20458;-73
2023/03/29 00:16:37;;;;;;;4.85;1.10;;;9.10;77.90;;;;;;4934602;29;20442;-72
2023/03/29 00:19:03;;;;;;;9.45;1.63;;;9.00;78.00;;;;;;4917894;29;20063;-72
2023/03/29 00:21:29;;;;;;;5.82;1.50;;;9.00;77.90;;;;;;4934561;29;20035;-72
2023/03/29 00:23:56;;;;;;;10.90;1.50;;;9.00;77.70;;;;;;4935009;29;20178;-72
2023/03/29 00:26:22;;;;;;;5.85;1.40;;;9.00;78.00;;;;;;4934566;29;20032;-72
2023/03/29 00:28:47;;;;;;;5.72;1.48;;;9.00;78.10;;;;;;4934477;29;20039;-72
2023/03/29 00:31:15;;;;;;;4.32;1.30;;;9.00;78.00;;;;;;4934418;29;20434;-72
2023/03/29 00:33:42;;;;;;;6.88;1.20;;;9.00;78.20;;;;;;4934029;29;20047;-72
2023/03/29 00:36:09;;;;;;;7.10;1.58;;;9.00;78.20;;;;;;4934922;29;20034;-72
2023/03/29 00:38:35;;;;;;;3.35;1.65;;;9.00;78.20;;;;;;4934760;29;20027;-72
2023/03/29 00:41:02;;;;;;;3.17;1.27;;;8.90;78.20;;;;;;4934120;29;20177;-73
2023/03/29 00:43:29;;;;;;;5.55;1.42;;;9.00;78.30;;;;;;4917413;29;20040;-72
2023/03/29 00:45:54;;;;;;;4.55;1.23;;;9.00;78.80;;;;;;4934066;29;20043;-73
2023/03/29 00:48:28;;;;;;;11.25;2.03;;;8.90;78.70;;;;;;4933979;29;20028;-72
2023/03/29 00:51:02;;;;;;;4.97;1.20;;;8.80;78.70;;;;;;4934700;29;20406;-73
2023/03/29 00:53:41;;;;;;;9.88;1.80;;;8.90;78.80;;;;;;4933923;29;20363;-74
2023/03/29 00:56:14;;;;;;;5.80;1.67;;;8.90;79.20;;;;;;4934327;29;20042;-73
2023/03/29 00:58:48;;;;;;;7.63;1.67;;;8.90;78.90;;;;;;4933968;29;20039;-74
2023/03/29 01:01:19;;;;;;;2.65;1.20;;;8.80;78.80;;;;;;4933741;29;20042;-73
2023/03/29 01:03:52;;;;;;;13.45;1.38;;;8.90;78.90;;;;;;4917062;29;20028;-72
2023/03/29 01:06:23;;;;;;;6.55;1.30;;;8.90;78.90;;;;;;4933763;29;20031;-73
2023/03/29 01:08:54;;;;;;;4.68;1.75;;;8.80;78.80;;;;;;4917482;29;20353;-74
2023/03/29 01:11:23;;;;;;;5.13;1.52;;;8.80;78.90;;;;;;4933828;29;20028;-72
2023/03/29 01:14:02;;;;;;;9.00;1.83;;;8.80;78.80;;;;;;4933747;29;20039;-72
2023/03/29 01:16:31;;;;;;;2.97;1.23;;;8.80;78.80;;;;;;4933863;29;20058;-72
2023/03/29 01:19:01;;;;;;;6.45;1.90;;;8.90;79.10;;;;;;4933708;29;20312;-72
2023/03/29 01:21:36;;;;;;;5.65;1.55;;;8.90;79.00;;;;;;4933678;29;20361;-72
2023/03/29 01:24:43;;;;;;;7.60;1.40;;;8.80;79.30;;;;;;4933094;29;20374;-72
2023/03/29 01:27:21;;;;;;;7.70;1.73;;;8.80;79.50;;;;;;4932349;29;20049;-73
2023/03/29 01:29:54;;;;;;;5.95;2.13;;;8.80;79.80;;;;;;4932821;29;20577;-71
2023/03/29 01:32:34;;;;;;;7.40;2.15;;;8.70;79.90;;;;;;4933166;29;20044;-72
2023/03/29 01:35:14;;;;;;;7.35;1.52;;;8.80;80.20;;;;;;4934747;29;20028;-72
2023/03/29 01:38:07;;;;;;;7.45;1.90;;;8.80;80.30;;;;;;4935384;29;20028;-72
2023/03/29 01:40:34;;;;;;;6.97;1.95;;;8.70;80.50;;;;;;4952306;29;20035;-71
2023/03/29 01:43:09;;;;;;;10.73;1.73;;;8.80;80.60;;;;;;4952542;29;20031;-71
2023/03/29 01:45:45;;;;;;;5.32;1.73;;;8.80;80.70;;;;;;4952134;29;20034;-73
2023/03/29 01:48:44;;;;;;;7.90;1.90;;;8.90;80.90;;;;;;4952491;29;20054;-72
2023/03/29 01:51:18;;;;;;;6.45;1.80;;;8.80;80.90;;;;;;4952419;29;20019;-72
2023/03/29 01:53:56;;;;;;;6.63;1.90;;;8.80;81.20;;;;;;4935817;29;20098;-72
2023/03/29 01:56:27;;;;;;;7.82;2.00;;;8.70;81.50;;;;;;4952267;29;20027;-71
2023/03/29 01:58:57;;;;;;;6.20;1.65;;;8.80;81.70;;;;;;4952171;29;20330;-73
2023/03/29 02:01:29;;;;;;;6.07;1.98;;;8.90;82.10;;;;;;4952307;29;20489;-72
2023/03/29 02:04:02;;;;;;;4.90;2.00;;;8.80;82.80;;;;;;4952107;29;20027;-73
2023/03/29 02:06:31;;;;;;;10.43;2.10;;;8.80;83.30;;;;;;4935257;29;20501;-72
2023/03/29 02:08:58;;;;;;;6.95;2.65;;;8.80;84.30;;;;;;4936064;29;20369;-73
2023/03/29 02:11:26;;;;;;;8.00;2.58;;;8.70;84.80;;;;;;4952182;29;20398;-72
2023/03/29 02:13:51;;;;;;;;;;;8.70;85.30;;;;;;4952853;29;20501;-73
2023/03/29 02:16:18;;;;;;;7.00;2.50;;;8.70;85.90;;;;;;4952167;29;19968;-72
2023/03/29 02:18:47;;;;;;;6.07;2.13;;;8.70;86.20;;;;;;4935032;29;20035;-72
2023/03/29 02:21:20;;;;;;;4.30;1.85;;;8.80;86.90;;;;;;4935107;29;20461;-72
2023/03/29 02:23:48;;;;;;;4.93;2.10;;;8.70;88.00;;;;;;4952482;28;20422;-73
2023/03/29 02:26:14;;;;;;;4.90;2.33;;;8.70;89.50;;;;;;4952143;29;20095;-72
2023/03/29 02:28:41;;;;;;;6.28;2.40;;;8.70;89.20;;;;;;4952033;29;20031;-72
2023/03/29 02:31:23;;;;;;;8.50;2.22;;;8.60;89.70;;;;;;4951937;29;20044;-72
2023/03/29 02:33:58;;;;;;;4.15;2.30;;;8.60;90.00;;;;;;4934964;29;20038;-72
2023/03/29 02:36:37;;;;;;;5.25;2.22;;;8.60;90.10;;;;;;4952276;29;20031;-74
2023/03/29 02:39:06;;;;;;;9.02;2.20;;;8.70;90.20;;;;;;4952364;29;20465;-74
2023/03/29 02:41:33;;;;;;;5.80;2.40;;;8.60;90.40;;;;;;4952146;29;20066;-73
2023/03/29 02:44:00;;;;;;;5.78;2.10;;;8.60;90.40;;;;;;4952078;29;20027;-72
2023/03/29 02:46:26;;;;;;;5.25;2.25;;;8.70;90.40;;;;;;4951881;29;20426;-74
2023/03/29 02:48:53;;;;;;;7.15;2.22;;;8.70;90.30;;;;;;4951892;29;20135;-72
2023/03/29 02:51:31;;;;;;;5.47;2.03;;;8.60;90.40;;;;;;4951828;29;20089;-72
2023/03/29 02:54:12;;;;;;;7.85;2.33;;;8.60;90.60;;;;;;4952381;29;20038;-72
2023/03/29 02:56:46;;;;;;;7.10;1.95;;;8.60;90.60;;;;;;4953714;28;20051;-73
2023/03/29 02:59:12;;;;;;;8.60;2.30;;;8.60;90.50;;;;;;4938504;29;20046;-73
2023/03/29 03:01:41;;;;;;;6.95;2.22;;;8.50;90.70;;;;;;4955433;29;20110;-72
2023/03/29 03:04:11;;;;;;;2.95;1.90;;;8.50;90.70;;;;;;4955186;29;20493;-73
2023/03/29 03:06:37;;;;;;;7.30;1.83;;;8.40;91.10;;;;;;4954988;29;20090;-72
2023/03/29 03:09:04;;;;;;;9.35;2.55;;;8.40;91.30;;;;;;4955597;29;20099;-73
2023/03/29 03:11:31;;;;;;;7.25;2.17;;;8.40;91.40;;;;;;4955247;29;20457;-72
2023/03/29 03:13:56;;;;;;;11.00;2.30;;;8.40;91.50;;;;;;4954749;29;20473;-73
2023/03/29 03:16:22;;;;;;;5.00;2.35;;;8.40;91.70;;;;;;4954971;29;20072;-72
2023/03/29 03:18:50;;;;;;;7.13;2.25;;;8.30;91.60;;;;;;4937728;29;20038;-72
2023/03/29 03:21:16;;;;;;;8.80;2.55;;;8.30;91.90;;;;;;4954725;29;20361;-74
2023/03/29 03:23:42;;;;;;;8.35;2.70;;;8.30;92.00;;;;;;4955373;28;20027;-73
2023/03/29 03:26:08;;;;;;;4.68;2.17;;;8.40;91.80;;;;;;4954413;29;20037;-72
2023/03/29 03:28:34;;;;;;;7.03;2.45;;;8.30;92.00;;;;;;4954744;29;20027;-72
2023/03/29 03:30:59;;;;;;;5.47;2.33;;;8.30;91.90;;;;;;4954638;29;20115;-71
2023/03/29 03:33:26;;;;;;;4.70;2.45;;;8.30;92.60;;;;;;4954504;29;20062;-72
2023/03/29 03:35:55;;;;;;;5.75;2.58;;;8.20;92.60;;;;;;4954976;29;20436;-74
2023/03/29 03:38:22;;;;;;;7.03;2.50;;;8.20;92.70;;;;;;4954505;29;20413;-72
2023/03/29 03:40:55;;;;;;;6.40;2.47;;;8.20;92.70;;;;;;4954640;29;20047;-72
2023/03/29 03:43:20;;;;;;;13.75;3.30;;;8.20;92.90;;;;;;4954604;29;20039;-73
2023/03/29 03:45:46;;;;;;;5.63;2.20;;;8.30;92.90;;;;;;4937070;29;20473;-72
2023/03/29 03:48:12;;;;;;;6.15;2.35;;;8.30;92.80;;;;;;4954298;29;20032;-72
2023/03/29 03:50:39;;;;;;;10.57;2.90;;;8.40;93.30;;;;;;4954713;29;20041;-72
2023/03/29 03:53:06;;;;;;;11.20;2.80;;;8.40;93.20;;;;;;4937036;29;20039;-72
2023/03/29 03:55:32;;;;;;;6.82;3.03;;;8.30;93.40;;;;;;4937068;29;20042;-73
2023/03/29 03:57:58;;;;;;;10.07;3.03;;;8.20;93.50;;;;;;4937057;29;20039;-72
2023/03/29 04:00:25;;;;;;;10.10;2.60;;;8.20;93.60;;;;;;4937014;29;20405;-72
2023/03/29 04:02:53;;;;;;;6.35;2.50;;;8.20;93.80;;;;;;4955172;29;20023;-72
2023/03/29 04:05:19;;;;;;;;;;;8.20;94.10;;;;;;4954841;29;20050;-72
2023/03/29 04:07:45;;;;;;;11.48;3.40;;;8.20;94.20;;;;;;4953516;28;20261;-72
2023/03/29 04:10:11;;;;;;;7.78;2.90;;;8.10;94.40;;;;;;4953733;29;20047;-71
2023/03/29 04:12:37;;;;;;;7.75;3.20;;;8.10;94.50;;;;;;4953788;29;20043;-72
2023/03/29 04:15:03;;;;;;;7.75;3.10;;;8.10;94.70;;;;;;4937080;29;20042;-72
2023/03/29 04:17:29;;;;;;;7.82;3.53;;;8.10;94.90;;;;;;4953913;29;20035;-72
2023/03/29 04:19:56;;;;;;;7.90;3.00;;;8.10;95.10;;;;;;4953541;29;20058;-72
2023/03/29 04:22:22;;;;;;;6.60;3.17;;;8.00;95.30;;;;;;4953596;29;20075;-72
2023/03/29 04:24:47;;;;;;;6.70;2.92;;;8.00;95.30;;;;;;4936732;29;20457;-73
2023/03/29 04:27:13;;;;;;;8.43;3.65;;;8.00;95.20;;;;;;4953433;29;20027;-73
2023/03/29 04:29:39;;;;;;;9.65;3.25;;;8.00;95.60;;;;;;4936992;29;20023;-74
2023/03/29 04:32:04;;;;;;;8.25;3.63;;;8.00;95.90;;;;;;4953224;29;20116;-73
2023/03/29 04:34:30;;;;;;;7.15;3.58;;;7.80;96.20;;;;;;4953476;29;20085;-72
2023/03/29 04:36:57;;;;;;;6.15;3.22;;;7.80;96.50;;;;;;4953299;29;20040;-72
2023/03/29 04:39:30;;;;;;;7.68;3.42;;;7.80;96.40;;;;;;4953304;29;20019;-72
2023/03/29 04:41:56;;;;;;;7.97;3.80;;;7.80;96.60;;;;;;4954007;29;20113;-72
2023/03/29 04:44:22;;;;;;;6.63;3.05;;;7.70;96.80;;;;;;4953217;29;20494;-73
2023/03/29 04:46:48;;;;;;;7.38;4.05;;;7.80;97.10;;;;;;4953109;29;20054;-73
2023/03/29 04:49:13;;;;;;;7.30;3.97;;;7.80;96.90;;;;;;4953211;29;20484;-73
2023/03/29 04:51:39;;;;;;;11.15;4.00;;;7.90;96.80;;;;;;4952978;29;20047;-73
2023/03/29 04:54:05;;;;;;;7.28;3.70;;;7.80;96.90;;;;;;4953515;29;20348;-71
2023/03/29 04:56:31;;;;;;;5.95;3.83;;;7.80;97.00;;;;;;4953152;29;20035;-72
2023/03/29 04:58:56;;;;;;;10.13;3.70;;;7.90;97.00;;;;;;4953339;29;20035;-72
2023/03/29 05:01:22;;;;;;;8.18;3.80;;;7.90;97.00;;;;;;4953108;29;20035;-72
2023/03/29 05:03:47;;;;;;;6.80;3.88;;;7.90;96.90;;;;;;4952896;29;20035;-72
2023/03/29 05:06:13;;;;;;;8.65;3.85;;;7.80;97.20;;;;;;4953239;29;20023;-72
2023/03/29 05:08:39;;;;;;;7.43;3.90;;;7.90;97.20;;;;;;4953436;29;20055;-72
2023/03/29 05:11:10;;;;;;;8.68;4.22;;;7.90;97.00;;;;;;4953206;29;20027;-71
2023/03/29 05:13:36;;;;;;;11.23;4.60;;;7.80;97.10;;;;;;4952744;29;20406;-72
2023/03/29 05:16:03;;;;;;;9.13;3.85;;;7.90;97.10;;;;;;4952263;29;20043;-71
2023/03/29 05:18:29;;;;;;;8.48;4.10;;;7.80;97.30;;;;;;4952099;28;20375;-71
2023/03/29 05:20:56;;;;;;;8.00;4.10;;;7.70;97.50;;;;;;4936306;29;20512;-72
2023/03/29 05:23:22;;;;;;;7.07;3.92;;;7.80;97.40;;;;;;4952758;28;20051;-71
2023/03/29 05:25:49;;;;;;;6.55;3.83;;;7.80;97.40;;;;;;4952717;29;20032;-72
2023/03/29 05:28:16;;;;;;;6.90;3.72;;;7.80;97.60;;;;;;4952744;29;20062;-71
2023/03/29 05:30:42;;;;;;;9.02;4.55;;;7.70;97.60;;;;;;4952562;29;20370;-72
2023/03/29 05:33:09;;;;;;;6.38;3.80;;;7.70;97.70;;;;;;4952487;29;20042;-71
2023/03/29 05:35:35;;;;;;;12.13;4.67;;;7.80;97.70;;;;;;4953026;29;20015;-71
2023/03/29 05:38:03;;;;;;;8.32;4.47;;;7.90;97.50;;;;;;4952435;29;20369;-71
2023/03/29 05:40:30;;;;;;;9.45;4.60;;;7.80;97.40;;;;;;4952634;29;20373;-71
2023/03/29 05:42:56;;;;;;;9.70;3.83;;;7.80;97.50;;;;;;4952425;29;20031;-71
2023/03/29 05:45:23;;;;;;;8.70;4.43;;;7.80;97.60;;;;;;4935416;29;20039;-71
2023/03/29 05:47:49;;;;;;;8.23;4.45;;;7.90;97.50;;;;;;4953215;29;20047;-72
2023/03/29 05:50:15;;;;;;;9.50;4.22;;;7.90;97.50;;;;;;4952861;29;20058;-73
2023/03/29 05:52:41;;;;;;;6.25;3.72;;;8.00;97.40;;;;;;4953274;29;20477;-72
2023/03/29 05:55:08;;;;;;;13.63;5.22;;;8.00;97.40;;;;;;4952455;29;20035;-71
2023/03/29 05:57:37;;;;;;;5.70;3.63;;;7.90;97.70;;;;;;4952226;29;20110;-72
2023/03/29 06:00:25;;;;;;;8.93;4.50;;;8.00;97.30;;;;;;4952740;29;20313;-71
2023/03/29 06:02:51;;;;;;;7.65;4.75;;;7.90;97.30;;;;;;4951980;29;20067;-74
2023/03/29 06:05:18;;;;;;;9.32;4.32;;;7.90;97.50;;;;;;4935067;29;20043;-71
2023/03/29 06:07:47;;;;;;;10.15;4.85;;;8.00;97.40;;;;;;4952124;29;20039;-73
2023/03/29 06:10:14;;;;;;;8.43;4.72;;;8.00;97.50;;;;;;4952084;29;20039;-71
2023/03/29 06:12:40;;;;;;;11.63;6.32;;;8.10;97.40;;;;;;4951826;29;20456;-74
2023/03/29 06:15:07;;;;;;;8.80;5.05;;;8.00;97.30;;;;;;4935269;29;20090;-71
2023/03/29 06:17:33;;;;;;;9.88;5.22;;;8.10;97.40;;;;;;4955752;29;20106;-72
2023/03/29 06:20:00;;;;;;;9.00;4.82;;;8.10;97.20;;;;;;4952187;29;20039;-72
2023/03/29 06:22:26;;;;;;;16.88;6.32;;;8.20;97.20;;;;;;4951924;29;20035;-72
2023/03/29 06:24:52;;;;;;;10.57;5.68;;;8.10;97.20;;;;;;4952085;28;20039;-72
2023/03/29 06:27:18;;;;;;;10.20;4.75;;;8.20;97.20;;;;;;4934869;29;20027;-72
2023/03/29 06:29:44;;;;;;;9.88;5.00;;;8.20;97.20;;;;;;4952715;28;20019;-72
2023/03/29 06:32:10;;;;;;;11.30;5.55;;;8.30;97.10;;;;;;4955677;29;20039;-73
2023/03/29 06:34:36;;;;;;;10.48;5.45;;;8.30;97.10;;;;;;4955729;29;20027;-71
2023/03/29 06:37:02;;;;;;;8.38;4.38;;;8.40;97.10;;;;;;4955584;29;20406;-72
2023/03/29 06:39:28;;;;;;;8.25;4.78;;;8.40;97.10;;;;;;4955427;29;20541;-72
2023/03/29 06:41:54;;;;;;;8.40;4.95;;;8.40;97.10;;;;;;4955839;29;20054;-73
2023/03/29 06:44:20;;;;;;;12.60;4.82;;;8.40;97.00;;;;;;4955499;29;20027;-71
2023/03/29 06:46:46;;;;;;;11.00;4.82;;;8.50;97.00;;;;;;4955592;29;20050;-72
2023/03/29 06:49:12;;;;;;;9.68;4.43;;;8.50;96.90;;;;;;4955221;29;20090;-73
2023/03/29 06:51:39;;;;;;;12.40;4.72;;;8.60;96.80;;;;;;4955477;29;20484;-74
2023/03/29 06:54:04;;;;;;;8.48;4.32;;;8.80;96.90;;;;;;4955628;29;20031;-73
2023/03/29 06:56:31;;;;;;;7.28;4.40;;;8.80;96.70;;;;;;4955522;29;20106;-77
2023/03/29 06:58:57;;;;;;;12.77;5.10;;;8.90;96.60;;;;;;4955468;29;20035;-77
2023/03/29 07:01:23;;;;;;;9.00;4.88;;;9.00;96.50;;;;;;4955590;29;20043;-76
2023/03/29 07:03:49;;;;;;;8.65;4.70;;;9.10;96.40;;;;;;4955508;29;20027;-76
2023/03/29 07:06:16;;;;;;;10.55;4.35;;;9.20;96.20;;;;;;4938153;29;20035;-74
2023/03/29 07:08:42;;;;;;;10.07;4.43;;;9.20;96.00;;;;;;4955604;29;20030;-72
2023/03/29 07:11:13;;;;;;;6.43;3.92;;;9.10;96.00;;;;;;4955018;29;20031;-73
2023/03/29 07:13:42;;;;;;;13.45;5.00;;;9.10;96.00;;;;;;4960885;29;20346;-74
2023/03/29 07:16:11;;;;;;;12.27;5.05;;;9.20;96.10;;;;;;4937969;29;20508;-74
2023/03/29 07:18:40;;;;;;;10.50;4.82;;;9.30;96.10;;;;;;4954705;29;20047;-72
2023/03/29 07:21:06;;;;;;;7.75;4.30;;;9.40;96.30;;;;;;4954748;29;20027;-71
2023/03/29 07:23:32;;;;;;;10.52;6.20;;;9.30;95.80;;;;;;4955242;28;20035;-73
2023/03/29 07:25:58;;;;;;;10.77;5.10;;;9.30;95.90;;;;;;4955021;29;20031;-71
2023/03/29 07:28:23;;;;;;;7.45;4.60;;;9.40;95.90;;;;;;4937839;29;20390;-72
2023/03/29 07:30:50;;;;;;;11.80;4.55;;;9.30;95.90;;;;;;4937685;29;20039;-72
2023/03/29 07:33:15;;;;;;;9.90;4.20;;;9.30;95.90;;;;;;4954416;29;20358;-71
2023/03/29 07:35:42;;;;;;;7.13;4.07;;;9.30;96.10;;;;;;4955487;29;20042;-71
2023/03/29 07:38:09;;;;;;;10.13;3.95;;;9.30;96.00;;;;;;4955005;29;20074;-71
2023/03/29 07:40:34;;;;;;;8.55;4.28;;;9.30;96.00;;;;;;4937419;29;20073;-73
2023/03/29 07:43:01;;;;;;;8.75;4.35;;;9.30;95.80;;;;;;4953417;28;20401;-71
2023/03/29 07:45:28;;;;;;;5.97;4.03;;;9.30;95.80;;;;;;4954408;29;20047;-72
2023/03/29 07:47:56;;;;;;;8.13;4.05;;;9.40;95.80;;;;;;4955304;29;20023;-74
2023/03/29 07:50:22;;;;;;;10.23;4.28;;;9.30;95.80;;;;;;4955174;29;20237;-72
2023/03/29 07:52:49;;;;;;;12.40;3.78;;;9.30;95.80;;;;;;4954543;29;20035;-73
2023/03/29 07:55:15;;;;;;;6.38;3.70;;;9.30;95.70;;;;;;4954656;29;20039;-70
2023/03/29 07:57:42;;;;;;;9.98;4.40;;;9.30;95.70;;;;;;4937548;29;20031;-70
2023/03/29 08:00:14;;;;;;;7.67;4.17;;;9.40;95.70;;;;;;4954354;29;20027;-70
2023/03/29 08:02:45;;;;;;;9.45;4.30;;;9.40;95.60;;;;;;4937959;29;20297;-70
2023/03/29 08:05:15;;;;;;;9.23;4.15;;;9.40;95.60;;;;;;4941649;29;20172;-71
2023/03/29 08:07:43;;;;;;;9.73;3.92;;;9.50;95.60;;;;;;4954253;29;20043;-71
2023/03/29 08:10:20;;;;;;;6.22;3.75;;;9.50;95.50;;;;;;4954140;29;20440;-71
2023/03/29 08:12:47;;;;;;;13.15;4.68;;;9.60;95.60;;;;;;4954007;29;20066;-71
2023/03/29 08:15:14;;;;;;;10.07;4.35;;;9.70;95.50;;;;;;4954195;29;20027;-70
2023/03/29 08:17:41;;;;;;;7.15;4.20;;;9.70;95.40;;;;;;4954308;29;20034;-70
2023/03/29 08:20:09;;;;;;;7.23;4.20;;;9.80;95.30;;;;;;4936697;29;20040;-71
2023/03/29 08:22:35;;;;;;;8.10;3.78;;;9.80;95.30;;;;;;4936605;29;20410;-70
2023/03/29 08:25:03;;;;;;;7.00;3.75;;;9.90;95.20;;;;;;4953546;28;20062;-73
2023/03/29 08:27:29;;;;;;;13.43;6.60;;;10.00;94.70;;;;;;4936800;29;20378;-71
2023/03/29 08:29:54;;;;;;;12.98;6.43;;;10.10;94.50;;;;;;4954130;29;20020;-70
2023/03/29 08:32:20;;;;;;;12.45;6.07;;;10.00;94.50;;;;;;4953763;29;20477;-71
2023/03/29 08:34:46;;;;;;;10.93;5.13;;;10.00;94.40;;;;;;4936665;29;20024;-70
2023/03/29 08:37:13;;;;;;;10.13;3.97;;;10.10;94.30;;;;;;4938324;29;20401;-70
2023/03/29 08:39:39;;;;;;;6.85;3.58;;;10.10;94.30;;;;;;4953605;29;20031;-70
2023/03/29 08:42:11;;;;;;;7.05;3.42;;;10.00;94.10;;;;;;4954157;29;20460;-69
2023/03/29 08:44:46;;;;;;;12.25;4.55;;;10.10;94.20;;;;;;4953899;29;20050;-69
2023/03/29 08:47:12;;;;;;;6.32;3.60;;;10.20;94.20;;;;;;4953234;29;20027;-71
2023/03/29 08:49:41;;;;;;;9.85;4.45;;;10.20;94.00;;;;;;4953240;29;20508;-70
2023/03/29 08:52:22;;;;;;;8.07;4.28;;;10.20;94.10;;;;;;4953313;29;20149;-70
2023/03/29 08:54:51;;;;;;;18.10;4.43;;;10.20;94.20;;;;;;4954260;28;20393;-71
2023/03/29 08:57:22;;;;;;;5.03;3.60;;;10.20;94.20;;;;;;4936911;29;20477;-70
2023/03/29 08:59:51;;;;;;;6.32;3.35;;;10.30;94.20;;;;;;4937284;29;20027;-70
2023/03/29 09:02:22;;;;;;;7.85;3.92;;;10.30;94.10;;;;;;4936820;29;20338;-71
2023/03/29 09:04:51;;;;;;;5.78;3.63;;;10.30;94.10;;;;;;4936196;29;20457;-71
2023/03/29 09:07:16;;;;;;;12.82;3.97;;;10.30;94.10;;;;;;4953040;29;20465;-72
2023/03/29 09:09:42;;;;;;;8.45;3.70;;;10.20;94.00;;;;;;4953898;29;20039;-71
2023/03/29 09:12:29;;;;;;;6.05;3.30;;;10.30;94.20;;;;;;4952887;29;20098;-71
2023/03/29 09:15:26;;;;;;;7.50;3.63;;;10.20;94.20;;;;;;4954095;29;20023;-70
2023/03/29 09:18:12;;;;;;;6.47;3.78;;;10.40;94.10;;;;;;4952353;29;20043;-72
2023/03/29 09:20:59;;;;;;;9.45;3.45;;;10.30;94.10;;;;;;4953152;29;20035;-71
2023/03/29 09:23:41;;;;;;;8.77;4.00;;;10.40;94.10;;;;;;4935946;29;20039;-72
2023/03/29 09:26:33;;;;;;;9.75;4.20;;;10.40;94.10;;;;;;4953122;29;20062;-71
2023/03/29 09:29:26;;;;;;;12.48;5.43;;;10.40;94.20;;;;;;4924134;29;20039;-72
2023/03/29 09:31:54;;;;;;;8.93;4.47;;;10.40;94.10;;;;;;4951033;29;20303;-70
2023/03/29 09:34:31;;;;;;;8.55;4.07;;;10.40;94.10;;;;;;4953066;29;20054;-70
2023/03/29 09:37:10;;;;;;;8.30;4.18;;;10.50;94.20;;;;;;4935631;29;20417;-71
2023/03/29 09:39:38;;;;;;;6.25;4.18;;;10.60;94.10;;;;;;4953571;29;20122;-72
2023/03/29 09:42:10;;;;;;;7.97;3.97;;;10.70;94.20;;;;;;4954024;29;20035;-68
2023/03/29 09:44:56;;;;;;;12.07;4.05;;;10.60;94.10;;;;;;4952809;29;20102;-70
2023/03/29 09:47:51;;;;;;;9.50;4.15;;;10.70;94.20;;;;;;4952505;29;20039;-68
2023/03/29 09:50:35;;;;;;;5.63;3.78;;;10.70;94.20;;;;;;4935597;29;20315;-69
2023/03/29 09:53:01;;;;;;;9.80;3.38;;;10.70;94.30;;;;;;4935535;29;20050;-68
2023/03/29 09:55:32;;;;;;;10.82;4.13;;;10.80;94.30;;;;;;4952665;29;20043;-69
2023/03/29 09:58:01;;;;;;;8.48;3.33;;;10.80;94.40;;;;;;4952753;29;20551;-69
2023/03/29 10:00:27;;;;;;;7.72;3.65;;;10.80;94.90;;;;;;4952374;29;20039;-69
2023/03/29 10:02:55;;;;;;;7.10;3.47;;;10.80;95.10;;;;;;4953097;29;20366;-70
2023/03/29 10:05:24;;;;;;;8.93;4.03;;;10.80;95.20;;;;;;4954371;28;20031;-69
2023/03/29 10:07:53;;;;;;;11.90;5.32;;;11.00;95.20;;;;;;4939386;29;20337;-71
2023/03/29 10:10:27;;;;;;;11.40;5.15;;;11.20;95.10;;;;;;4938969;29;20047;-69
2023/03/29 10:12:58;;;;;;;9.73;5.28;;;11.10;95.30;;;;;;4956150;29;20180;-72
2023/03/29 10:15:28;;;;;;;15.15;5.45;;;11.00;96.10;;;;;;4955818;29;20500;-69
2023/03/29 10:18:05;;;;;;;9.82;4.88;;;11.10;96.00;;;;;;4956410;29;20449;-72
2023/03/29 10:20:34;;;;;;;8.52;5.60;;;11.30;95.80;;;;;;4956219;29;20057;-72
2023/03/29 10:22:59;;;;;;;8.43;4.65;;;11.30;95.50;;;;;;4955829;28;20059;-72
2023/03/29 10:25:31;;;;;;;5.55;3.60;;;11.30;95.40;;;;;;4955993;29;20055;-72
2023/03/29 10:28:07;;;;;;;15.40;6.60;;;11.40;95.20;;;;;;4955962;29;20045;-70
2023/03/29 10:30:37;;;;;;;7.10;3.45;;;11.30;95.20;;;;;;4920710;29;20043;-80
2023/03/29 10:33:05;;;;;;;8.02;3.97;;;11.30;95.20;;;;;;4921955;29;20072;-74
2023/03/29 10:35:40;;;;;;;9.68;3.47;;;11.20;95.70;;;;;;4920249;29;20435;-72
2023/03/29 10:38:13;;;;;;;12.40;3.75;;;11.20;95.60;;;;;;4936666;29;20343;-70
2023/03/29 10:40:45;;;;;;;7.70;4.03;;;11.30;95.90;;;;;;4919826;29;20028;-72
2023/03/29 10:43:22;;;;;;;5.70;2.85;;;11.30;96.20;;;;;;4919414;29;20512;-72
2023/03/29 10:45:56;;;;;;;7.10;3.33;;;11.40;96.10;;;;;;4936396;29;20390;-70
2023/03/29 10:48:29;;;;;;;9.02;5.35;;;11.40;95.90;;;;;;4936433;29;20123;-70
2023/03/29 10:51:00;;;;;;;6.55;4.05;;;11.40;96.00;;;;;;4936915;29;20353;-71
2023/03/29 10:53:28;;;;;;;9.48;3.63;;;11.50;96.00;;;;;;4936382;29;20043;-74
2023/03/29 10:56:18;;;;;;;7.43;3.83;;;11.60;96.00;;;;;;4936189;29;20052;-72
2023/03/29 10:58:54;;;;;;;8.30;4.13;;;11.80;95.80;;;;;;4936349;29;20036;-73
2023/03/29 11:01:31;;;;;;;9.23;4.10;;;12.00;95.50;;;;;;4935254;29;20478;-72
2023/03/29 11:04:03;;;;;;;9.52;6.10;;;12.20;95.40;;;;;;4936143;29;20039;-72
2023/03/29 11:06:39;;;;;;;10.35;3.95;;;12.30;95.30;;;;;;4936642;29;20500;-73
2023/03/29 11:09:41;;;;;;;6.38;3.20;;;12.40;95.30;;;;;;4935597;29;20553;-71
2023/03/29 11:12:23;;;;;;;7.90;3.70;;;12.40;95.20;;;;;;4936276;29;20051;-70
2023/03/29 11:15:13;;;;;;;9.85;3.85;;;12.40;95.30;;;;;;4919766;29;20024;-70
2023/03/29 11:18:10;;;;;;;11.10;4.60;;;12.60;95.20;;;;;;4935831;29;20039;-70
2023/03/29 11:20:59;;;;;;;10.20;4.45;;;12.70;95.20;;;;;;4936869;29;20043;-70
2023/03/29 11:24:02;;;;;;;12.48;4.45;;;12.90;95.00;;;;;;4935905;29;20032;-71
2023/03/29 11:26:50;;;;;;;9.07;4.15;;;13.00;94.70;;;;;;4934741;29;20414;-71
2023/03/29 11:29:27;;;;;;;9.45;4.50;;;13.10;94.50;;;;;;4934465;29;20133;-69
2023/03/29 11:32:24;;;;;;;10.32;4.30;;;13.20;94.60;;;;;;4935644;29;20090;-69
2023/03/29 11:34:56;;;;;;;9.25;4.75;;;13.20;94.60;;;;;;4936152;29;20478;-72
2023/03/29 11:37:47;;;;;;;8.88;4.13;;;13.30;94.40;;;;;;4935145;29;20050;-71
2023/03/29 11:40:34;;;;;;;10.23;4.72;;;13.50;94.20;;;;;;4934436;29;20090;-70
2023/03/29 11:43:04;;;;;;;17.40;6.95;;;13.70;93.80;;;;;;4935426;29;20036;-69
2023/03/29 11:45:40;;;;;;;12.45;4.80;;;13.90;93.80;;;;;;4935113;29;20024;-70
2023/03/29 11:48:15;;;;;;;10.80;4.55;;;13.80;93.70;;;;;;4918584;29;20024;-70
2023/03/29 11:50:52;;;;;;;11.18;4.68;;;13.60;93.50;;;;;;4935821;29;20024;-71
2023/03/29 11:53:38;;;;;;;6.75;4.22;;;13.60;93.50;;;;;;4935852;29;20032;-71
2023/03/29 11:56:23;;;;;;;10.07;4.50;;;13.80;93.50;;;;;;4919153;29;20032;-73
2023/03/29 11:58:56;;;;;;;9.90;4.70;;;14.10;93.50;;;;;;4934808;29;20099;-71
2023/03/29 12:01:30;;;;;;;8.27;4.00;;;14.20;93.10;;;;;;4934993;29;20043;-71
2023/03/29 12:03:59;;;;;;;11.07;4.22;;;14.50;92.90;;;;;;4934945;29;20529;-71
2023/03/29 12:06:44;;;;;;;17.88;5.05;;;14.60;92.90;;;;;;4934895;29;20020;-71
2023/03/29 12:09:32;;;;;;;8.02;4.25;;;14.70;92.40;;;;;;4934002;29;20035;-70
2023/03/29 12:12:04;;;;;;;13.45;4.32;;;14.50;92.20;;;;;;4936128;29;20027;-74
2023/03/29 12:14:48;;;;;;;22.33;8.93;;;14.50;92.40;;;;;;4935754;29;20294;-71
2023/03/29 12:17:19;;;;;;;13.15;4.95;;;14.40;92.50;;;;;;4935953;29;20035;-70
2023/03/29 12:20:26;;;;;;;17.23;4.97;;;14.40;92.50;;;;;;4935862;29;20596;-72
2023/03/29 12:22:53;;;;;;;13.73;5.00;;;14.30;92.60;;;;;;4935455;29;20082;-72
2023/03/29 12:26:10;;;;;;;9.80;4.57;;;14.20;92.90;;;;;;4918583;29;20040;-71
2023/03/29 12:29:07;;;;;;;9.30;4.78;;;14.10;92.90;;;;;;4903880;29;20047;-73
2023/03/29 12:31:45;;;;;;;9.88;5.47;;;13.90;93.20;;;;;;4921737;29;20051;-71
2023/03/29 12:34:34;;;;;;;11.48;5.00;;;14.00;93.30;;;;;;4915466;29;20094;-72
2023/03/29 12:37:22;;;;;;;10.55;4.38;;;14.00;93.30;;;;;;4915798;29;20202;-73
2023/03/29 12:39:50;;;;;;;13.10;5.70;;;14.00;93.30;;;;;;4915789;29;20028;-73
2023/03/29 12:42:17;;;;;;;;;;;14.20;93.50;;;;;;4915664;29;20414;-72
2023/03/29 12:44:48;;;;;;;5.78;3.50;;;14.00;93.60;;;;;;4915358;29;20357;-73
2023/03/29 12:47:24;;;;;;;15.55;9.65;;;14.00;93.60;;;;;;4915478;29;20059;-72
2023/03/29 12:49:58;;;;;;;10.10;4.75;;;14.00;93.70;;;;;;4915152;29;20055;-73
2023/03/29 12:52:34;;;;;;;7.60;4.18;;;14.00;93.80;;;;;;4914313;29;20543;-72
2023/03/29 12:55:03;;;;;;;11.00;4.07;;;14.00;93.90;;;;;;4915403;29;20040;-72
2023/03/29 12:57:46;;;;;;;9.35;3.80;;;13.80;94.20;;;;;;4898224;29;20032;-72
2023/03/29 13:00:42;;;;;;;8.10;3.88;;;13.70;94.30;;;;;;4914911;29;20031;-70
2023/03/29 13:03:28;;;;;;;5.32;3.40;;;13.70;94.50;;;;;;4915580;29;20362;-71
2023/03/29 13:06:03;;;;;;;6.13;3.78;;;13.70;94.70;;;;;;4915774;29;20028;-71
2023/03/29 13:08:42;;;;;;;7.55;3.60;;;13.70;94.90;;;;;;4915363;29;20086;-76
2023/03/29 13:11:22;;;;;;;12.00;5.40;;;13.50;95.50;;;;;;4898979;29;20048;-72
2023/03/29 13:13:49;;;;;;;7.18;3.80;;;13.60;95.70;;;;;;4914041;29;20059;-71